createdAt,value
2022-09-07T00:02:20.566Z,97352.19
2022-09-07T00:04:47.126Z,97344.50
2022-09-07T00:07:13.835Z,97350.50
2022-09-07T00:09:40.416Z,97345.38
2022-09-07T00:12:06.998Z,97345.38
2022-09-07T00:14:34.297Z,97346.19
2022-09-07T00:17:00.868Z,97348.75
2022-09-07T00:19:27.446Z,97345.34
2022-09-07T00:21:54.064Z,97346.19
2022-09-07T00:24:20.610Z,97347.06
2022-09-07T00:26:47.180Z,97350.50
2022-09-07T00:29:13.745Z,97352.19
2022-09-07T00:31:40.391Z,97347.03
2022-09-07T00:34:07.296Z,97354.78
2022-09-07T00:36:33.920Z,97333.22
2022-09-07T00:39:00.513Z,97330.75
2022-09-07T00:41:27.178Z,97322.13
2022-09-07T00:43:55.519Z,97325.63
2022-09-07T00:46:26.858Z,97316.09
2022-09-07T01:55:15.013Z,97347.84
2022-09-07T01:57:47.972Z,97328.13
2022-09-07T02:00:18.827Z,97335.84
2022-09-07T02:02:56.598Z,97330.69
2022-09-07T02:05:35.294Z,97335.00
2022-09-07T02:08:13.795Z,97329.75
2022-09-07T02:10:49.023Z,97334.06
2022-09-07T02:13:22.499Z,97352.13
2022-09-07T02:16:09.446Z,97345.16
2022-09-07T02:19:32.475Z,97356.44
2022-09-07T02:28:17.550Z,97347.78
2022-09-07T02:30:44.444Z,97363.28
2022-09-07T02:33:11.101Z,97369.28
2022-09-07T02:35:37.796Z,97348.63
2022-09-07T02:38:05.463Z,97352.13
2022-09-07T02:40:32.353Z,97354.72
2022-09-07T02:42:59.727Z,97343.56
2022-09-07T02:45:26.351Z,97348.72
2022-09-07T02:48:21.910Z,97349.56
2022-09-07T02:51:28.959Z,97353.84
2022-09-07T02:54:37.061Z,97339.28
2022-09-07T02:57:22.234Z,97338.44
2022-09-07T03:00:20.792Z,97346.13
2022-09-07T03:10:27.216Z,97328.16
2022-09-07T03:15:38.388Z,97317.84
2022-09-07T03:18:05.294Z,97323.88
2022-09-07T03:20:31.878Z,97322.13
2022-09-07T03:22:58.497Z,97329.00
2022-09-07T03:25:25.342Z,97326.44
2022-09-07T03:27:51.977Z,97331.56
2022-09-07T03:30:18.834Z,97329.00
2022-09-07T03:32:45.510Z,97335.03
2022-09-07T03:35:14.247Z,97349.56
2022-09-07T03:37:41.061Z,97340.97
2022-09-07T03:40:09.279Z,97347.00
2022-09-07T03:42:36.309Z,97337.59
2022-09-07T03:45:02.974Z,97337.59
2022-09-07T03:47:29.581Z,97332.44
2022-09-07T03:49:56.182Z,97337.63
2022-09-07T03:52:22.864Z,97330.72
2022-09-07T03:54:49.508Z,97323.88
2022-09-07T03:57:16.140Z,97328.16
2022-09-07T03:59:42.729Z,97332.44
2022-09-07T04:02:09.384Z,97327.31
2022-09-07T04:04:36.054Z,97318.75
2022-09-07T04:07:02.667Z,97314.47
2022-09-07T04:09:29.358Z,97323.00
2022-09-07T04:11:56.059Z,97320.38
2022-09-07T04:14:22.779Z,97330.72
2022-09-07T04:16:49.569Z,97318.66
2022-09-07T04:19:16.409Z,97324.75
2022-09-07T04:21:47.139Z,97323.88
2022-09-07T04:24:16.854Z,97322.97
2022-09-07T04:26:43.768Z,97224.50
2022-09-07T04:29:10.938Z,97329.00
2022-09-07T04:31:37.711Z,97343.56
2022-09-07T04:34:05.066Z,97331.59
2022-09-07T04:36:31.816Z,97336.75
2022-09-07T04:38:59.978Z,97329.88
2022-09-07T04:41:27.206Z,97326.47
2022-09-07T04:43:57.956Z,97320.41
2022-09-07T04:46:26.152Z,97297.06
2022-09-07T04:48:57.360Z,97323.00
2022-09-07T04:51:25.305Z,97338.47
2022-09-07T04:53:52.607Z,97335.88
2022-09-07T04:56:19.410Z,97319.56
2022-09-07T04:58:46.633Z,97335.03
2022-09-07T05:01:15.227Z,97345.31
2022-09-07T05:03:41.860Z,97353.06
2022-09-07T05:06:08.643Z,97354.75
2022-09-07T05:08:39.051Z,97359.88
2022-09-07T05:11:05.865Z,97365.03
2022-09-07T05:13:32.734Z,97360.72
2022-09-07T05:15:59.861Z,97367.59
2022-09-07T05:18:26.637Z,97368.47
2022-09-07T05:20:53.395Z,97356.41
2022-09-07T05:23:19.994Z,97365.91
2022-09-07T05:25:46.888Z,97374.47
2022-09-07T05:28:18.581Z,97365.00
2022-09-07T05:36:20.649Z,97389.03
2022-09-07T05:38:47.355Z,97380.41
2022-09-07T05:41:19.368Z,97397.59
2022-09-07T05:46:32.831Z,97400.19
2022-09-07T05:49:00.694Z,97400.19
2022-09-07T05:51:27.268Z,97405.31
2022-09-07T05:53:53.916Z,97406.16
2022-09-07T05:56:20.548Z,97419.06
2022-09-07T05:58:50.158Z,97409.63
2022-09-07T06:01:16.867Z,97408.78
2022-09-07T06:03:44.537Z,97399.28
2022-09-07T06:06:12.873Z,97411.34
2022-09-07T06:08:40.599Z,97407.88
2022-09-07T06:11:12.178Z,97421.63
2022-09-07T06:13:39.969Z,97419.88
2022-09-07T06:16:07.363Z,97431.06
2022-09-07T06:18:35.707Z,97424.16
2022-09-07T06:21:05.859Z,97428.47
2022-09-07T06:23:32.942Z,97432.72
2022-09-07T06:25:59.527Z,97417.28
2022-09-07T06:28:33.794Z,97421.66
2022-09-07T06:31:00.901Z,97403.53
2022-09-07T06:33:27.562Z,97418.19
2022-09-07T06:35:57.996Z,97420.78
2022-09-07T06:38:26.851Z,97422.50
2022-09-07T06:43:50.389Z,97411.34
2022-09-07T06:49:03.903Z,97427.63
2022-09-07T06:51:31.988Z,97426.75
2022-09-07T06:56:45.333Z,97417.34
2022-09-07T06:59:11.940Z,97424.16
2022-09-07T07:01:38.517Z,97422.44
2022-09-07T07:04:05.088Z,97424.16
2022-09-07T07:06:35.173Z,97400.88
2022-09-07T07:09:02.108Z,97420.72
2022-09-07T07:11:28.797Z,97422.44
2022-09-07T07:13:55.389Z,97409.59
2022-09-07T07:16:21.993Z,97416.47
2022-09-07T07:18:52.235Z,97419.03
2022-09-07T07:21:18.846Z,97415.59
2022-09-07T07:23:46.311Z,97423.31
2022-09-07T07:26:17.852Z,97417.34
2022-09-07T07:29:04.807Z,97419.94
2022-09-07T07:31:33.230Z,97422.50
2022-09-07T07:33:59.851Z,97419.06
2022-09-07T07:36:26.920Z,97420.78
2022-09-07T07:44:13.896Z,97412.25
2022-09-07T07:46:40.630Z,97410.50
2022-09-07T07:49:07.411Z,97410.50
2022-09-07T07:52:49.909Z,97413.94
2022-09-07T07:54:20.452Z,97413.97
2022-09-07T07:56:47.107Z,97403.59
2022-09-07T07:59:15.810Z,97417.41
2022-09-07T08:01:43.762Z,97412.25
2022-09-07T08:04:10.509Z,97403.69
2022-09-07T08:06:37.759Z,97408.84
2022-09-07T08:09:04.320Z,97415.69
2022-09-07T08:11:31.611Z,97415.69
2022-09-07T08:14:00.239Z,97414.00
2022-09-07T08:16:26.936Z,97407.16
2022-09-07T08:18:53.710Z,97402.88
2022-09-07T08:21:20.249Z,97405.44
2022-09-07T08:23:46.728Z,97400.31
2022-09-07T08:26:13.246Z,97410.59
2022-09-07T08:28:41.123Z,97405.47
2022-09-07T08:31:09.014Z,97412.31
2022-09-07T08:33:38.969Z,97395.97
2022-09-07T08:36:16.672Z,97414.03
2022-09-07T08:38:43.237Z,97410.56
2022-09-07T08:41:28.090Z,97414.03
2022-09-07T08:44:02.714Z,97387.31
2022-09-07T08:46:42.466Z,97406.34
2022-09-07T08:49:16.052Z,97395.03
2022-09-07T08:51:54.092Z,97408.91
2022-09-07T08:54:20.927Z,97409.75
2022-09-07T08:59:51.930Z,97382.91
2022-09-07T09:02:38.808Z,97410.59
2022-09-07T09:05:20.908Z,97354.53
2022-09-07T09:07:53.633Z,97403.75
2022-09-07T09:10:27.302Z,97424.31
2022-09-07T09:12:59.897Z,97407.19
2022-09-07T09:15:34.065Z,97368.28
2022-09-07T09:18:22.189Z,97399.50
2022-09-07T09:20:55.696Z,97399.50
2022-09-07T09:23:25.753Z,97394.38
2022-09-07T09:25:55.548Z,97396.06
2022-09-07T09:28:22.313Z,97402.09
2022-09-07T09:30:48.897Z,97399.50
2022-09-07T09:33:19.452Z,97408.09
2022-09-07T09:35:49.946Z,97402.94
2022-09-07T09:38:35.471Z,97408.06
2022-09-07T09:41:09.435Z,97416.69
2022-09-07T09:43:51.057Z,97180.88
2022-09-07T09:46:34.212Z,97409.84
2022-09-07T09:49:03.750Z,97377.88
2022-09-07T09:54:39.648Z,97369.22
2022-09-07T09:57:06.138Z,97394.34
2022-09-07T10:05:42.218Z,97400.41
2022-09-07T10:08:26.498Z,97382.34
2022-09-07T10:10:55.974Z,97390.13
2022-09-07T10:13:53.200Z,97394.41
2022-09-07T10:16:19.747Z,97397.84
2022-09-07T10:18:58.945Z,97386.69
2022-09-07T10:21:29.497Z,97396.13
2022-09-07T10:24:05.241Z,97385.84
2022-09-07T10:26:33.748Z,97364.25
2022-09-07T10:29:14.081Z,97390.16
2022-09-07T10:31:46.879Z,97376.47
2022-09-07T10:34:31.966Z,97369.50
2022-09-07T10:36:58.361Z,97379.84
2022-09-07T10:39:36.152Z,97144.97
2022-09-07T10:42:08.975Z,97367.03
2022-09-07T10:44:59.263Z,97374.72
2022-09-07T10:47:47.838Z,97364.44
2022-09-07T10:50:24.073Z,97335.94
2022-09-07T10:53:18.316Z,97363.63
2022-09-07T10:56:04.127Z,97354.09
2022-09-07T11:01:51.070Z,97316.25
2022-09-07T11:04:26.833Z,97340.50
2022-09-07T11:06:58.067Z,97330.19
2022-09-07T11:09:30.493Z,97323.34
2022-09-07T11:12:05.655Z,97314.69
2022-09-07T11:14:39.132Z,97321.63
2022-09-07T11:17:18.063Z,97319.03
2022-09-07T11:19:52.597Z,97315.59
2022-09-07T11:22:23.842Z,97308.69
2022-09-07T11:28:08.687Z,97311.31
2022-09-07T11:30:43.445Z,97299.25
2022-09-07T11:33:21.225Z,97301.88
2022-09-07T11:35:52.285Z,97300.13
2022-09-07T11:38:27.708Z,97300.13
2022-09-07T11:41:20.287Z,97303.56
2022-09-07T11:43:58.006Z,97309.56
2022-09-07T11:46:32.570Z,97299.28
2022-09-07T11:48:59.183Z,97269.03
2022-09-07T11:51:42.170Z,97301.84
2022-09-07T11:54:48.459Z,97301.84
2022-09-07T11:57:14.941Z,97292.38
2022-09-07T11:59:44.046Z,97291.56
2022-09-07T12:02:36.715Z,97287.25
2022-09-07T12:05:21.184Z,97282.97
2022-09-07T12:08:18.464Z,97284.66
2022-09-07T12:11:08.208Z,97286.41
2022-09-07T12:13:53.252Z,97288.13
2022-09-07T12:16:28.623Z,97281.22
2022-09-07T12:19:17.924Z,97280.41
2022-09-07T12:21:53.431Z,97272.69
2022-09-07T12:24:47.101Z,97269.25
2022-09-07T12:27:19.760Z,97271.00
2022-09-07T12:30:12.398Z,97265.84
2022-09-07T12:32:56.820Z,97271.00
2022-09-07T12:35:27.496Z,97271.84
2022-09-07T12:37:54.581Z,97263.28
2022-09-07T12:40:48.167Z,97269.25
2022-09-07T12:43:14.672Z,97275.28
2022-09-07T12:45:41.935Z,97265.00
2022-09-07T12:48:17.100Z,97256.41
2022-09-07T12:50:56.942Z,97251.25
2022-09-07T12:53:48.193Z,97245.31
2022-09-07T12:56:23.470Z,97246.16
2022-09-07T12:59:05.162Z,97240.16
2022-09-07T13:02:09.379Z,97248.72
2022-09-07T13:04:50.045Z,97249.59
2022-09-07T13:07:49.501Z,97242.78
2022-09-07T13:10:37.046Z,97229.06
2022-09-07T13:13:04.474Z,97228.19
2022-09-07T13:15:51.223Z,97224.78
2022-09-07T13:18:29.751Z,97218.78
2022-09-07T13:21:08.418Z,97223.06
2022-09-07T13:23:38.755Z,97222.25
2022-09-07T13:26:06.725Z,97211.94
2022-09-07T13:28:58.011Z,97207.66
2022-09-07T13:32:03.563Z,97209.41
2022-09-07T13:34:46.102Z,97196.47
2022-09-07T13:37:19.764Z,97208.53
2022-09-07T13:39:47.275Z,97205.09
2022-09-07T13:42:19.456Z,97199.09
2022-09-07T13:44:57.174Z,97199.94
2022-09-07T13:47:29.800Z,97191.38
2022-09-07T13:50:11.498Z,97197.34
2022-09-07T13:53:17.100Z,97194.78
2022-09-07T13:56:01.480Z,97192.19
2022-09-07T13:58:41.723Z,97159.50
2022-09-07T14:01:24.731Z,97178.50
2022-09-07T14:03:56.279Z,97175.03
2022-09-07T14:06:22.691Z,97187.03
2022-09-07T14:08:52.018Z,97182.75
2022-09-07T14:11:18.861Z,97171.59
2022-09-07T14:13:45.320Z,97175.03
2022-09-07T14:16:11.830Z,97173.31
2022-09-07T14:18:39.108Z,97172.47
2022-09-07T14:21:09.107Z,97169.88
2022-09-07T14:23:36.665Z,97169.91
2022-09-07T14:26:19.858Z,97161.25
2022-09-07T14:28:47.628Z,97173.34
2022-09-07T14:31:15.867Z,97165.66
2022-09-07T14:33:52.823Z,97163.91
2022-09-07T14:36:41.628Z,97163.09
2022-09-07T14:39:06.791Z,97166.47
2022-09-07T14:41:34.715Z,97161.34
2022-09-07T14:44:01.407Z,97160.50
2022-09-07T14:46:34.076Z,97161.31
2022-09-07T14:49:16.343Z,97144.19
2022-09-07T14:51:43.656Z,97143.31
2022-09-07T14:54:31.851Z,97156.22
2022-09-07T14:57:03.996Z,97144.22
2022-09-07T14:59:37.643Z,97141.66
2022-09-07T15:02:27.070Z,97139.09
2022-09-07T15:05:20.565Z,97135.66
2022-09-07T15:07:47.786Z,97133.97
2022-09-07T15:10:20.424Z,97135.66
2022-09-07T15:12:50.313Z,97121.97
2022-09-07T15:15:21.807Z,97128.81
2022-09-07T15:17:48.626Z,97121.97
2022-09-07T15:20:35.121Z,97125.41
2022-09-07T15:23:12.121Z,97117.69
2022-09-07T15:25:40.719Z,97115.09
2022-09-07T15:28:07.491Z,97109.97
2022-09-07T15:30:34.143Z,97114.28
2022-09-07T15:33:00.743Z,97108.25
2022-09-07T15:35:27.251Z,97111.72
2022-09-07T15:38:02.328Z,97105.69
2022-09-07T15:40:29.726Z,97085.97
2022-09-07T15:42:59.977Z,97087.66
2022-09-07T15:45:26.918Z,97089.41
2022-09-07T15:47:53.709Z,97087.69
2022-09-07T15:50:23.165Z,97085.13
2022-09-07T15:52:50.194Z,97062.72
2022-09-07T15:55:17.384Z,97084.25
2022-09-07T15:58:02.232Z,97084.25
2022-09-07T16:00:30.845Z,97089.38
2022-09-07T16:03:06.272Z,97087.69
2022-09-07T16:05:33.671Z,97085.97
2022-09-07T16:10:53.475Z,97085.09
2022-09-07T16:13:20.445Z,97084.19
2022-09-07T16:15:47.374Z,97085.97
2022-09-07T16:18:16.518Z,97078.25
2022-09-07T16:20:43.303Z,97076.47
2022-09-07T16:23:14.292Z,97075.69
2022-09-07T16:25:43.125Z,97067.03
2022-09-07T16:28:09.998Z,97084.22
2022-09-07T16:30:39.434Z,97079.94
2022-09-07T16:33:06.117Z,97067.88
2022-09-07T16:35:32.943Z,97084.22
2022-09-07T16:40:46.514Z,97085.09
2022-09-07T16:43:13.011Z,97075.66
2022-09-07T16:48:25.974Z,97082.50
2022-09-07T16:51:00.384Z,97080.81
2022-09-07T16:53:32.897Z,97071.34
2022-09-07T16:56:08.830Z,97068.78
2022-09-07T16:58:42.995Z,97063.66
2022-09-07T17:01:11.409Z,97055.06
2022-09-07T17:03:38.292Z,97066.22
2022-09-07T17:06:06.120Z,97066.22
2022-09-07T17:08:33.601Z,97070.53
2022-09-07T17:11:04.544Z,97045.59
2022-09-07T17:13:34.309Z,97059.38
2022-09-07T17:16:11.400Z,97053.34
2022-09-07T17:21:24.531Z,97043.91
2022-09-07T17:23:55.524Z,97039.63
2022-09-07T17:26:22.558Z,97054.22
2022-09-07T17:28:49.994Z,97045.63
2022-09-07T17:34:08.582Z,97045.63
2022-09-07T17:36:35.301Z,97056.81
2022-09-07T17:39:18.434Z,97063.63
2022-09-07T17:41:46.483Z,97061.06
2022-09-07T17:44:13.009Z,97061.06
2022-09-07T17:46:39.508Z,97052.53
2022-09-07T17:49:07.910Z,97050.78
2022-09-07T17:51:35.228Z,97045.63
2022-09-07T17:54:03.271Z,97037.94
2022-09-07T17:56:31.509Z,97045.63
2022-09-07T18:00:10.499Z,97036.19
2022-09-07T18:01:44.971Z,97044.81
2022-09-07T18:04:11.776Z,97043.94
2022-09-07T18:06:38.315Z,97037.94
2022-09-07T18:09:05.114Z,97034.50
2022-09-07T18:11:48.665Z,97036.22
2022-09-07T18:14:16.304Z,97027.63
2022-09-07T18:16:43.388Z,97034.50
2022-09-07T18:19:10.957Z,97037.91
2022-09-07T18:21:37.907Z,97013.00
2022-09-07T18:24:07.533Z,97026.78
2022-09-07T18:26:35.522Z,97022.44
2022-09-07T18:29:03.817Z,97031.06
2022-09-07T18:31:30.781Z,97033.59
2022-09-07T18:33:57.392Z,97030.16
2022-09-07T18:36:24.152Z,97038.78
2022-09-07T18:38:50.883Z,97051.63
2022-09-07T18:41:17.468Z,97042.22
2022-09-07T18:43:44.527Z,97050.75
2022-09-07T18:46:18.433Z,97054.19
2022-09-07T18:48:45.245Z,97044.75
2022-09-07T18:51:11.751Z,97047.34
2022-09-07T18:53:38.437Z,97049.06
2022-09-07T18:56:06.963Z,97049.91
2022-09-07T18:58:34.215Z,97045.56
2022-09-07T19:01:08.746Z,97054.19
2022-09-07T19:03:36.063Z,97059.31
2022-09-07T19:06:04.970Z,97057.59
2022-09-07T19:08:34.884Z,97045.56
2022-09-07T19:11:14.824Z,97050.75
2022-09-07T19:13:41.356Z,97053.31
2022-09-07T19:16:18.258Z,97060.19
2022-09-07T19:18:49.017Z,97046.41
2022-09-07T19:21:19.395Z,97067.91
2022-09-07T19:24:02.236Z,97073.84
2022-09-07T19:26:33.142Z,97083.31
2022-09-07T19:29:00.339Z,97082.44
2022-09-07T19:31:27.541Z,97071.28
2022-09-07T19:34:00.863Z,97075.59
2022-09-07T19:36:32.351Z,97073.03
2022-09-07T19:38:59.644Z,97084.16
2022-09-07T19:41:26.871Z,97073.00
2022-09-07T19:43:53.378Z,97079.00
2022-09-07T19:46:24.675Z,97073.00
2022-09-07T19:48:51.614Z,97067.84
2022-09-07T19:51:18.414Z,97075.59
2022-09-07T19:53:45.803Z,97074.75
2022-09-07T19:56:16.537Z,97072.16
2022-09-07T19:58:43.840Z,97073.88
2022-09-07T20:01:17.464Z,97062.72
2022-09-07T20:03:44.789Z,97052.41
2022-09-07T20:06:12.964Z,97076.44
2022-09-07T20:08:39.494Z,97071.28
2022-09-07T20:11:08.314Z,97067.84
2022-09-07T20:13:37.637Z,97064.44
2022-09-07T20:16:05.087Z,97048.97
2022-09-07T20:18:31.660Z,97046.44
2022-09-07T20:20:58.612Z,97032.66
2022-09-07T20:23:25.081Z,97030.13
2022-09-07T20:25:58.362Z,97030.13
2022-09-07T20:28:24.934Z,97023.25
2022-09-07T20:30:51.518Z,97033.59
2022-09-07T20:33:18.124Z,97038.72
2022-09-07T20:35:45.087Z,97037.88
2022-09-07T20:38:12.101Z,97033.59
2022-09-07T20:40:38.619Z,97031.88
2022-09-07T20:43:05.097Z,97025.00
2022-09-07T20:45:34.908Z,97017.28
2022-09-07T20:48:01.664Z,97019.03
2022-09-07T20:50:28.140Z,97005.28
2022-09-07T20:52:54.621Z,97006.19
2022-09-07T20:55:21.122Z,97002.75
2022-09-07T20:57:47.651Z,97009.59
2022-09-07T21:00:14.256Z,96999.31
2022-09-07T21:02:41.400Z,96995.03
2022-09-07T21:05:08.220Z,96989.00
2022-09-07T21:07:34.697Z,96988.19
2022-09-07T21:10:04.717Z,96995.03
2022-09-07T21:12:33.032Z,96994.16
2022-09-07T21:14:59.528Z,96972.69
2022-09-07T21:17:26.004Z,96982.13
2022-09-07T21:19:52.828Z,96985.59
2022-09-07T21:22:19.324Z,96977.03
2022-09-07T21:24:45.816Z,96981.28
2022-09-07T21:27:12.443Z,96979.59
2022-09-07T21:29:38.919Z,96876.28
2022-09-07T21:32:05.450Z,96971.84
2022-09-07T21:34:31.939Z,96980.44
2022-09-07T21:36:58.432Z,96967.53
2022-09-07T21:39:24.895Z,96982.16
2022-09-07T21:41:51.540Z,96987.31
2022-09-07T21:44:18.130Z,96987.31
2022-09-07T21:46:45.009Z,96986.44
2022-09-07T21:49:11.623Z,96983.84
2022-09-07T21:51:38.168Z,96991.56
2022-09-07T21:54:04.702Z,96988.19
2022-09-07T21:56:31.293Z,96983.03
2022-09-07T21:58:59.018Z,96982.16
2022-09-07T22:01:26.508Z,96964.16
2022-09-07T22:03:57.499Z,96947.81
2022-09-07T22:06:24.362Z,96956.41
2022-09-07T22:08:50.871Z,96976.16
2022-09-07T22:11:18.750Z,96968.44
2022-09-07T22:13:45.302Z,96955.53
2022-09-07T22:16:12.353Z,96947.81
2022-09-07T22:18:40.149Z,96952.97
2022-09-07T22:21:14.419Z,96963.28
2022-09-07T22:23:42.968Z,96960.72
2022-09-07T22:26:09.842Z,96955.56
2022-09-07T22:28:36.549Z,96958.13
2022-09-07T22:31:10.286Z,96940.13
2022-09-07T22:33:36.854Z,96952.19
2022-09-07T22:36:19.647Z,96952.19
2022-09-07T22:38:47.240Z,96953.88
2022-09-07T22:41:15.968Z,96964.16
2022-09-07T22:43:42.815Z,96966.72
2022-09-07T22:46:09.884Z,96979.56
2022-09-07T22:48:36.466Z,96969.28
2022-09-07T22:51:04.155Z,96968.44
2022-09-07T22:53:32.199Z,96977.88
2022-09-07T22:55:58.962Z,97000.13
2022-09-07T22:58:28.888Z,97024.97
2022-09-07T23:00:58.132Z,97049.84
2022-09-07T23:03:24.883Z,97048.97
2022-09-07T23:05:51.420Z,97048.94
2022-09-07T23:08:17.911Z,97066.09
2022-09-07T23:10:44.459Z,97066.09
2022-09-07T23:13:16.790Z,97060.03
2022-09-07T23:15:43.536Z,97084.09
2022-09-07T23:18:16.876Z,97089.25
2022-09-07T23:20:43.415Z,97108.09
2022-09-07T23:23:10.034Z,97096.13
2022-09-07T23:25:39.494Z,97101.25
2022-09-07T23:28:07.243Z,97085.78
2022-09-07T23:30:35.523Z,97094.38
2022-09-07T23:33:02.719Z,97083.25
2022-09-07T23:35:29.279Z,97072.97
2022-09-07T23:37:55.757Z,97074.63
2022-09-07T23:40:22.240Z,97074.66
2022-09-07T23:42:48.711Z,97070.41
2022-09-07T23:45:15.267Z,97051.50
2022-09-07T23:47:41.791Z,97050.66
2022-09-07T23:50:08.516Z,97051.53
2022-09-07T23:52:35.004Z,97051.53
2022-09-07T23:55:01.465Z,97032.63
2022-09-07T23:57:28.021Z,97018.94
2022-09-07T23:59:54.539Z,97032.69
